sensor_id;sensor_type;location;lat;lon;timestamp;P1;durP1;ratioP1;P2;durP2;ratioP2
6547;SDS011;3307;52.416;16.862;2023-04-24T00:00:27;19.90;;;17.90;;
6547;SDS011;3307;52.416;16.862;2023-04-24T00:02:53;19.00;;;17.23;;
6547;SDS011;3307;52.416;16.862;2023-04-24T00:05:22;18.40;;;16.80;;
6547;SDS011;3307;52.416;16.862;2023-04-24T00:07:48;18.58;;;16.65;;
6547;SDS011;3307;52.416;16.862;2023-04-24T00:10:13;19.87;;;16.13;;
6547;SDS011;3307;52.416;16.862;2023-04-24T00:12:39;17.03;;;15.47;;
6547;SDS011;3307;52.416;16.862;2023-04-24T00:15:04;17.13;;;15.53;;
6547;SDS011;3307;52.416;16.862;2023-04-24T00:17:30;17.43;;;15.73;;
6547;SDS011;3307;52.416;16.862;2023-04-24T00:19:56;17.00;;;15.40;;
6547;SDS011;3307;52.416;16.862;2023-04-24T00:22:25;17.20;;;15.48;;
6547;SDS011;3307;52.416;16.862;2023-04-24T00:24:50;17.92;;;16.33;;
6547;SDS011;3307;52.416;16.862;2023-04-24T00:27:16;18.50;;;15.90;;
6547;SDS011;3307;52.416;16.862;2023-04-24T00:29:41;18.10;;;16.20;;
6547;SDS011;3307;52.416;16.862;2023-04-24T00:32:07;17.67;;;15.77;;
6547;SDS011;3307;52.416;16.862;2023-04-24T00:34:32;16.67;;;15.10;;
6547;SDS011;3307;52.416;16.862;2023-04-24T00:36:58;16.90;;;15.20;;
6547;SDS011;3307;52.416;16.862;2023-04-24T00:39:23;15.30;;;13.73;;
6547;SDS011;3307;52.416;16.862;2023-04-24T00:41:49;17.20;;;15.50;;
6547;SDS011;3307;52.416;16.862;2023-04-24T00:44:16;17.13;;;15.25;;
6547;SDS011;3307;52.416;16.862;2023-04-24T00:46:41;17.50;;;15.70;;
6547;SDS011;3307;52.416;16.862;2023-04-24T00:49:07;16.83;;;15.33;;
6547;SDS011;3307;52.416;16.862;2023-04-24T00:51:32;17.10;;;15.40;;
6547;SDS011;3307;52.416;16.862;2023-04-24T00:53:59;16.77;;;15.02;;
6547;SDS011;3307;52.416;16.862;2023-04-24T00:56:25;16.25;;;14.85;;
6547;SDS011;3307;52.416;16.862;2023-04-24T00:58:51;17.40;;;15.93;;
6547;SDS011;3307;52.416;16.862;2023-04-24T01:01:18;17.63;;;14.70;;
6547;SDS011;3307;52.416;16.862;2023-04-24T01:03:45;18.70;;;17.00;;
6547;SDS011;3307;52.416;16.862;2023-04-24T01:06:11;18.50;;;16.83;;
6547;SDS011;3307;52.416;16.862;2023-04-24T01:08:37;18.97;;;17.27;;
6547;SDS011;3307;52.416;16.862;2023-04-24T01:11:03;19.42;;;17.58;;
6547;SDS011;3307;52.416;16.862;2023-04-24T01:13:29;17.25;;;15.70;;
6547;SDS011;3307;52.416;16.862;2023-04-24T01:15:56;17.83;;;16.20;;
6547;SDS011;3307;52.416;16.862;2023-04-24T01:18:22;18.77;;;16.93;;
6547;SDS011;3307;52.416;16.862;2023-04-24T01:20:47;18.53;;;16.60;;
6547;SDS011;3307;52.416;16.862;2023-04-24T01:23:16;15.80;;;14.23;;
6547;SDS011;3307;52.416;16.862;2023-04-24T01:25:42;19.03;;;17.10;;
6547;SDS011;3307;52.416;16.862;2023-04-24T01:28:07;18.58;;;16.75;;
6547;SDS011;3307;52.416;16.862;2023-04-24T01:30:33;18.80;;;17.00;;
6547;SDS011;3307;52.416;16.862;2023-04-24T01:32:58;18.37;;;16.70;;
6547;SDS011;3307;52.416;16.862;2023-04-24T01:35:24;18.70;;;17.00;;
6547;SDS011;3307;52.416;16.862;2023-04-24T01:37:50;19.70;;;17.80;;
6547;SDS011;3307;52.416;16.862;2023-04-24T01:40:15;18.03;;;16.30;;
6547;SDS011;3307;52.416;16.862;2023-04-24T01:42:41;18.53;;;16.83;;
6547;SDS011;3307;52.416;16.862;2023-04-24T01:45:06;20.97;;;18.87;;
6547;SDS011;3307;52.416;16.862;2023-04-24T01:47:34;19.70;;;18.00;;
6547;SDS011;3307;52.416;16.862;2023-04-24T01:49:59;19.23;;;17.43;;
6547;SDS011;3307;52.416;16.862;2023-04-24T01:52:25;19.30;;;17.23;;
6547;SDS011;3307;52.416;16.862;2023-04-24T01:54:50;18.90;;;17.00;;
6547;SDS011;3307;52.416;16.862;2023-04-24T01:57:17;19.95;;;18.05;;
6547;SDS011;3307;52.416;16.862;2023-04-24T01:59:42;20.00;;;17.90;;
6547;SDS011;3307;52.416;16.862;2023-04-24T02:02:08;21.37;;;19.27;;
6547;SDS011;3307;52.416;16.862;2023-04-24T02:04:33;19.50;;;17.57;;
6547;SDS011;3307;52.416;16.862;2023-04-24T02:06:58;20.07;;;18.03;;
6547;SDS011;3307;52.416;16.862;2023-04-24T02:09:24;20.07;;;18.17;;
6547;SDS011;3307;52.416;16.862;2023-04-24T02:11:50;20.20;;;18.23;;
6547;SDS011;3307;52.416;16.862;2023-04-24T02:14:15;19.53;;;17.63;;
6547;SDS011;3307;52.416;16.862;2023-04-24T02:16:41;20.20;;;18.30;;
6547;SDS011;3307;52.416;16.862;2023-04-24T02:19:06;17.73;;;15.93;;
6547;SDS011;3307;52.416;16.862;2023-04-24T02:21:32;19.90;;;17.90;;
6547;SDS011;3307;52.416;16.862;2023-04-24T02:23:58;20.80;;;18.58;;
6547;SDS011;3307;52.416;16.862;2023-04-24T02:26:23;20.70;;;18.70;;
6547;SDS011;3307;52.416;16.862;2023-04-24T02:28:50;20.48;;;18.38;;
6547;SDS011;3307;52.416;16.862;2023-04-24T02:31:15;19.70;;;17.80;;
6547;SDS011;3307;52.416;16.862;2023-04-24T02:33:40;22.30;;;20.00;;
6547;SDS011;3307;52.416;16.862;2023-04-24T02:36:06;22.70;;;20.40;;
6547;SDS011;3307;52.416;16.862;2023-04-24T02:38:31;21.53;;;19.23;;
6547;SDS011;3307;52.416;16.862;2023-04-24T02:40:57;21.35;;;19.15;;
6547;SDS011;3307;52.416;16.862;2023-04-24T02:43:23;20.17;;;18.13;;
6547;SDS011;3307;52.416;16.862;2023-04-24T02:45:48;20.00;;;18.13;;
6547;SDS011;3307;52.416;16.862;2023-04-24T02:48:14;20.30;;;18.30;;
6547;SDS011;3307;52.416;16.862;2023-04-24T02:50:39;21.53;;;19.37;;
6547;SDS011;3307;52.416;16.862;2023-04-24T02:53:04;21.77;;;19.77;;
6547;SDS011;3307;52.416;16.862;2023-04-24T02:55:30;21.50;;;19.43;;
6547;SDS011;3307;52.416;16.862;2023-04-24T02:57:55;21.33;;;19.17;;
6547;SDS011;3307;52.416;16.862;2023-04-24T03:00:21;20.33;;;18.23;;
6547;SDS011;3307;52.416;16.862;2023-04-24T03:02:46;21.13;;;19.17;;
6547;SDS011;3307;52.416;16.862;2023-04-24T03:05:12;20.10;;;18.10;;
6547;SDS011;3307;52.416;16.862;2023-04-24T03:07:37;19.80;;;17.90;;
6547;SDS011;3307;52.416;16.862;2023-04-24T03:10:03;20.27;;;17.70;;
6547;SDS011;3307;52.416;16.862;2023-04-24T03:12:30;19.60;;;17.30;;
6547;SDS011;3307;52.416;16.862;2023-04-24T03:14:56;20.60;;;16.43;;
6547;SDS011;3307;52.416;16.862;2023-04-24T03:17:21;19.07;;;17.20;;
6547;SDS011;3307;52.416;16.862;2023-04-24T03:19:47;16.73;;;15.03;;
6547;SDS011;3307;52.416;16.862;2023-04-24T03:22:12;18.20;;;16.50;;
6547;SDS011;3307;52.416;16.862;2023-04-24T03:24:37;18.60;;;16.67;;
6547;SDS011;3307;52.416;16.862;2023-04-24T03:27:03;19.63;;;17.77;;
6547;SDS011;3307;52.416;16.862;2023-04-24T03:29:28;17.77;;;16.03;;
6547;SDS011;3307;52.416;16.862;2023-04-24T03:31:54;16.60;;;15.00;;
6547;SDS011;3307;52.416;16.862;2023-04-24T03:34:19;16.90;;;15.40;;
6547;SDS011;3307;52.416;16.862;2023-04-24T03:36:45;18.17;;;16.10;;
6547;SDS011;3307;52.416;16.862;2023-04-24T03:39:12;17.00;;;15.40;;
6547;SDS011;3307;52.416;16.862;2023-04-24T03:41:38;17.50;;;15.90;;
6547;SDS011;3307;52.416;16.862;2023-04-24T03:44:03;15.73;;;14.23;;
6547;SDS011;3307;52.416;16.862;2023-04-24T03:46:29;16.97;;;15.27;;
6547;SDS011;3307;52.416;16.862;2023-04-24T03:48:54;16.60;;;14.85;;
6547;SDS011;3307;52.416;16.862;2023-04-24T03:51:20;15.70;;;14.20;;
6547;SDS011;3307;52.416;16.862;2023-04-24T03:53:45;18.90;;;14.97;;
6547;SDS011;3307;52.416;16.862;2023-04-24T03:56:10;17.17;;;15.53;;
6547;SDS011;3307;52.416;16.862;2023-04-24T03:58:36;15.83;;;14.20;;
6547;SDS011;3307;52.416;16.862;2023-04-24T04:01:01;17.00;;;15.50;;
6547;SDS011;3307;52.416;16.862;2023-04-24T04:03:27;19.40;;;17.40;;
6547;SDS011;3307;52.416;16.862;2023-04-24T04:05:53;17.02;;;15.35;;
6547;SDS011;3307;52.416;16.862;2023-04-24T04:08:19;17.13;;;15.33;;
6547;SDS011;3307;52.416;16.862;2023-04-24T04:10:44;16.53;;;15.03;;
6547;SDS011;3307;52.416;16.862;2023-04-24T04:13:10;17.70;;;16.00;;
6547;SDS011;3307;52.416;16.862;2023-04-24T04:15:35;17.43;;;15.70;;
6547;SDS011;3307;52.416;16.862;2023-04-24T04:18:01;18.43;;;16.53;;
6547;SDS011;3307;52.416;16.862;2023-04-24T04:20:27;18.83;;;16.73;;
6547;SDS011;3307;52.416;16.862;2023-04-24T04:22:52;19.80;;;17.40;;
6547;SDS011;3307;52.416;16.862;2023-04-24T04:25:18;17.93;;;16.17;;
6547;SDS011;3307;52.416;16.862;2023-04-24T04:27:44;18.42;;;16.45;;
6547;SDS011;3307;52.416;16.862;2023-04-24T04:30:12;17.02;;;15.43;;
6547;SDS011;3307;52.416;16.862;2023-04-24T04:32:38;17.17;;;15.57;;
6547;SDS011;3307;52.416;16.862;2023-04-24T04:35:04;18.93;;;15.70;;
6547;SDS011;3307;52.416;16.862;2023-04-24T04:37:30;20.00;;;15.90;;
6547;SDS011;3307;52.416;16.862;2023-04-24T04:39:56;19.30;;;17.52;;
6547;SDS011;3307;52.416;16.862;2023-04-24T04:42:23;18.83;;;17.02;;
6547;SDS011;3307;52.416;16.862;2023-04-24T04:44:49;20.90;;;18.70;;
6547;SDS011;3307;52.416;16.862;2023-04-24T04:47:15;21.30;;;19.10;;
6547;SDS011;3307;52.416;16.862;2023-04-24T04:49:42;19.80;;;17.90;;
6547;SDS011;3307;52.416;16.862;2023-04-24T04:52:08;21.67;;;19.47;;
6547;SDS011;3307;52.416;16.862;2023-04-24T04:54:33;22.77;;;20.00;;
6547;SDS011;3307;52.416;16.862;2023-04-24T04:56:59;22.80;;;20.50;;
6547;SDS011;3307;52.416;16.862;2023-04-24T04:59:25;21.70;;;19.65;;
6547;SDS011;3307;52.416;16.862;2023-04-24T05:01:51;22.40;;;20.10;;
6547;SDS011;3307;52.416;16.862;2023-04-24T05:04:17;23.97;;;20.10;;
6547;SDS011;3307;52.416;16.862;2023-04-24T05:06:42;22.77;;;20.60;;
6547;SDS011;3307;52.416;16.862;2023-04-24T05:09:08;21.03;;;18.93;;
6547;SDS011;3307;52.416;16.862;2023-04-24T05:11:33;19.90;;;18.00;;
6547;SDS011;3307;52.416;16.862;2023-04-24T05:13:58;21.67;;;19.53;;
6547;SDS011;3307;52.416;16.862;2023-04-24T05:16:24;20.23;;;18.23;;
6547;SDS011;3307;52.416;16.862;2023-04-24T05:18:49;20.67;;;18.80;;
6547;SDS011;3307;52.416;16.862;2023-04-24T05:21:15;20.77;;;18.83;;
6547;SDS011;3307;52.416;16.862;2023-04-24T05:23:40;21.57;;;19.20;;
6547;SDS011;3307;52.416;16.862;2023-04-24T05:26:05;20.87;;;18.80;;
6547;SDS011;3307;52.416;16.862;2023-04-24T05:28:31;19.47;;;17.67;;
6547;SDS011;3307;52.416;16.862;2023-04-24T05:30:57;19.67;;;17.77;;
6547;SDS011;3307;52.416;16.862;2023-04-24T05:33:24;20.15;;;18.20;;
6547;SDS011;3307;52.416;16.862;2023-04-24T05:35:49;18.30;;;16.60;;
6547;SDS011;3307;52.416;16.862;2023-04-24T05:38:15;19.63;;;17.50;;
6547;SDS011;3307;52.416;16.862;2023-04-24T05:40:42;18.02;;;16.33;;
6547;SDS011;3307;52.416;16.862;2023-04-24T05:43:08;18.50;;;16.80;;
6547;SDS011;3307;52.416;16.862;2023-04-24T05:45:33;18.40;;;16.70;;
6547;SDS011;3307;52.416;16.862;2023-04-24T05:48:01;18.65;;;16.85;;
6547;SDS011;3307;52.416;16.862;2023-04-24T05:50:27;17.63;;;16.05;;
6547;SDS011;3307;52.416;16.862;2023-04-24T05:52:52;16.67;;;14.97;;
6547;SDS011;3307;52.416;16.862;2023-04-24T05:55:18;15.68;;;14.27;;
6547;SDS011;3307;52.416;16.862;2023-04-24T05:57:44;15.97;;;14.53;;
6547;SDS011;3307;52.416;16.862;2023-04-24T06:00:09;15.60;;;14.17;;
6547;SDS011;3307;52.416;16.862;2023-04-24T06:02:37;16.27;;;14.57;;
6547;SDS011;3307;52.416;16.862;2023-04-24T06:05:03;17.40;;;15.80;;
6547;SDS011;3307;52.416;16.862;2023-04-24T06:07:29;17.33;;;15.52;;
6547;SDS011;3307;52.416;16.862;2023-04-24T06:09:55;16.77;;;15.17;;
6547;SDS011;3307;52.416;16.862;2023-04-24T06:12:21;16.77;;;15.18;;
6547;SDS011;3307;52.416;16.862;2023-04-24T06:14:47;16.88;;;15.13;;
6547;SDS011;3307;52.416;16.862;2023-04-24T06:17:13;15.30;;;14.10;;
6547;SDS011;3307;52.416;16.862;2023-04-24T06:19:38;16.00;;;14.60;;
6547;SDS011;3307;52.416;16.862;2023-04-24T06:22:04;17.60;;;15.77;;
6547;SDS011;3307;52.416;16.862;2023-04-24T06:24:29;16.20;;;13.80;;
6547;SDS011;3307;52.416;16.862;2023-04-24T06:26:55;16.70;;;14.33;;
6547;SDS011;3307;52.416;16.862;2023-04-24T06:29:22;16.15;;;14.50;;
6547;SDS011;3307;52.416;16.862;2023-04-24T06:31:47;15.53;;;14.03;;
6547;SDS011;3307;52.416;16.862;2023-04-24T06:34:13;15.50;;;14.10;;
6547;SDS011;3307;52.416;16.862;2023-04-24T06:36:38;15.70;;;14.23;;
6547;SDS011;3307;52.416;16.862;2023-04-24T06:39:04;17.60;;;15.90;;
6547;SDS011;3307;52.416;16.862;2023-04-24T06:41:29;16.88;;;15.30;;
6547;SDS011;3307;52.416;16.862;2023-04-24T06:43:55;15.83;;;14.33;;
6547;SDS011;3307;52.416;16.862;2023-04-24T06:46:20;16.37;;;14.80;;
6547;SDS011;3307;52.416;16.862;2023-04-24T06:48:51;16.05;;;14.65;;
6547;SDS011;3307;52.416;16.862;2023-04-24T06:51:17;16.40;;;14.85;;
6547;SDS011;3307;52.416;16.862;2023-04-24T06:53:43;15.90;;;14.40;;
6547;SDS011;3307;52.416;16.862;2023-04-24T06:56:09;16.83;;;14.87;;
6547;SDS011;3307;52.416;16.862;2023-04-24T06:58:34;17.20;;;15.50;;
6547;SDS011;3307;52.416;16.862;2023-04-24T07:00:59;17.37;;;15.87;;
6547;SDS011;3307;52.416;16.862;2023-04-24T07:03:25;16.93;;;15.33;;
6547;SDS011;3307;52.416;16.862;2023-04-24T07:05:50;17.73;;;15.43;;
6547;SDS011;3307;52.416;16.862;2023-04-24T07:08:16;16.87;;;15.23;;
6547;SDS011;3307;52.416;16.862;2023-04-24T07:10:42;15.73;;;14.33;;
6547;SDS011;3307;52.416;16.862;2023-04-24T07:13:09;17.03;;;15.33;;
6547;SDS011;3307;52.416;16.862;2023-04-24T07:15:35;15.00;;;13.50;;
6547;SDS011;3307;52.416;16.862;2023-04-24T07:18:00;15.93;;;14.33;;
6547;SDS011;3307;52.416;16.862;2023-04-24T07:20:26;16.20;;;14.63;;
6547;SDS011;3307;52.416;16.862;2023-04-24T07:22:51;16.10;;;14.70;;
6547;SDS011;3307;52.416;16.862;2023-04-24T07:25:18;16.40;;;15.10;;
6547;SDS011;3307;52.416;16.862;2023-04-24T07:27:44;16.20;;;14.73;;
6547;SDS011;3307;52.416;16.862;2023-04-24T07:30:09;16.63;;;14.87;;
6547;SDS011;3307;52.416;16.862;2023-04-24T07:32:36;17.87;;;16.13;;
6547;SDS011;3307;52.416;16.862;2023-04-24T07:35:01;17.50;;;15.83;;
6547;SDS011;3307;52.416;16.862;2023-04-24T07:37:27;17.00;;;15.60;;
6547;SDS011;3307;52.416;16.862;2023-04-24T07:39:53;16.60;;;15.10;;
6547;SDS011;3307;52.416;16.862;2023-04-24T07:42:18;17.07;;;15.37;;
6547;SDS011;3307;52.416;16.862;2023-04-24T07:44:44;17.10;;;15.60;;
6547;SDS011;3307;52.416;16.862;2023-04-24T07:47:10;16.80;;;15.10;;
6547;SDS011;3307;52.416;16.862;2023-04-24T07:49:36;16.60;;;14.87;;
6547;SDS011;3307;52.416;16.862;2023-04-24T07:52:01;16.67;;;15.17;;
6547;SDS011;3307;52.416;16.862;2023-04-24T07:54:27;14.70;;;13.40;;
6547;SDS011;3307;52.416;16.862;2023-04-24T07:56:53;14.77;;;13.48;;
6547;SDS011;3307;52.416;16.862;2023-04-24T07:59:19;15.83;;;14.23;;
6547;SDS011;3307;52.416;16.862;2023-04-24T08:01:44;15.03;;;13.20;;
6547;SDS011;3307;52.416;16.862;2023-04-24T08:04:09;13.30;;;12.00;;
6547;SDS011;3307;52.416;16.862;2023-04-24T08:06:35;14.37;;;12.93;;
6547;SDS011;3307;52.416;16.862;2023-04-24T08:09:00;14.63;;;13.30;;
6547;SDS011;3307;52.416;16.862;2023-04-24T08:11:26;13.67;;;12.50;;
6547;SDS011;3307;52.416;16.862;2023-04-24T08:13:52;13.97;;;12.63;;
6547;SDS011;3307;52.416;16.862;2023-04-24T08:16:17;13.40;;;12.20;;
6547;SDS011;3307;52.416;16.862;2023-04-24T08:18:42;13.87;;;12.57;;
6547;SDS011;3307;52.416;16.862;2023-04-24T08:21:08;16.27;;;14.73;;
6547;SDS011;3307;52.416;16.862;2023-04-24T08:23:34;15.20;;;13.80;;
6547;SDS011;3307;52.416;16.862;2023-04-24T08:25:59;13.00;;;11.70;;
6547;SDS011;3307;52.416;16.862;2023-04-24T08:28:24;14.77;;;13.37;;
6547;SDS011;3307;52.416;16.862;2023-04-24T08:30:50;14.27;;;12.88;;
6547;SDS011;3307;52.416;16.862;2023-04-24T08:33:19;13.13;;;12.03;;
6547;SDS011;3307;52.416;16.862;2023-04-24T08:35:45;14.30;;;12.90;;
6547;SDS011;3307;52.416;16.862;2023-04-24T08:38:11;13.20;;;11.90;;
6547;SDS011;3307;52.416;16.862;2023-04-24T08:40:36;12.63;;;11.60;;
6547;SDS011;3307;52.416;16.862;2023-04-24T08:43:02;12.90;;;11.70;;
6547;SDS011;3307;52.416;16.862;2023-04-24T08:45:28;13.60;;;12.30;;
6547;SDS011;3307;52.416;16.862;2023-04-24T08:47:54;13.40;;;12.13;;
6547;SDS011;3307;52.416;16.862;2023-04-24T08:50:20;12.97;;;11.87;;
6547;SDS011;3307;52.416;16.862;2023-04-24T08:52:47;13.70;;;12.43;;
6547;SDS011;3307;52.416;16.862;2023-04-24T08:55:14;13.67;;;12.53;;
6547;SDS011;3307;52.416;16.862;2023-04-24T08:57:41;13.07;;;11.97;;
6547;SDS011;3307;52.416;16.862;2023-04-24T09:00:10;14.38;;;12.90;;
6547;SDS011;3307;52.416;16.862;2023-04-24T09:02:36;13.27;;;12.18;;
6547;SDS011;3307;52.416;16.862;2023-04-24T09:05:01;13.50;;;12.20;;
6547;SDS011;3307;52.416;16.862;2023-04-24T09:07:28;12.90;;;11.60;;
6547;SDS011;3307;52.416;16.862;2023-04-24T09:09:55;11.87;;;10.87;;
6547;SDS011;3307;52.416;16.862;2023-04-24T09:12:21;12.47;;;11.40;;
6547;SDS011;3307;52.416;16.862;2023-04-24T09:14:47;13.07;;;11.70;;
6547;SDS011;3307;52.416;16.862;2023-04-24T09:17:13;12.57;;;11.27;;
6547;SDS011;3307;52.416;16.862;2023-04-24T09:19:38;12.07;;;10.97;;
6547;SDS011;3307;52.416;16.862;2023-04-24T09:22:05;11.88;;;10.68;;
6547;SDS011;3307;52.416;16.862;2023-04-24T09:24:34;10.73;;;9.77;;
6547;SDS011;3307;52.416;16.862;2023-04-24T09:27:00;10.77;;;9.80;;
6547;SDS011;3307;52.416;16.862;2023-04-24T09:29:29;11.93;;;10.80;;
6547;SDS011;3307;52.416;16.862;2023-04-24T09:31:54;13.60;;;12.40;;
6547;SDS011;3307;52.416;16.862;2023-04-24T09:34:23;11.00;;;10.07;;
6547;SDS011;3307;52.416;16.862;2023-04-24T09:36:53;10.63;;;9.63;;
6547;SDS011;3307;52.416;16.862;2023-04-24T09:39:19;11.13;;;10.00;;
6547;SDS011;3307;52.416;16.862;2023-04-24T09:41:46;10.67;;;9.70;;
6547;SDS011;3307;52.416;16.862;2023-04-24T09:44:15;9.05;;;8.30;;
6547;SDS011;3307;52.416;16.862;2023-04-24T09:46:42;9.43;;;8.67;;
6547;SDS011;3307;52.416;16.862;2023-04-24T09:49:21;9.50;;;8.70;;
6547;SDS011;3307;52.416;16.862;2023-04-24T09:51:51;9.90;;;8.98;;
6547;SDS011;3307;52.416;16.862;2023-04-24T09:54:17;10.52;;;9.63;;
6547;SDS011;3307;52.416;16.862;2023-04-24T09:56:46;9.70;;;8.87;;
6547;SDS011;3307;52.416;16.862;2023-04-24T09:59:15;9.60;;;8.80;;
6547;SDS011;3307;52.416;16.862;2023-04-24T10:01:42;10.23;;;9.20;;
6547;SDS011;3307;52.416;16.862;2023-04-24T10:04:22;9.60;;;8.83;;
6547;SDS011;3307;52.416;16.862;2023-04-24T10:06:49;10.63;;;9.73;;
6547;SDS011;3307;52.416;16.862;2023-04-24T10:09:16;10.53;;;9.63;;
6547;SDS011;3307;52.416;16.862;2023-04-24T10:11:46;9.85;;;8.95;;
6547;SDS011;3307;52.416;16.862;2023-04-24T10:14:14;11.23;;;10.33;;
6547;SDS011;3307;52.416;16.862;2023-04-24T10:16:41;12.67;;;11.57;;
6547;SDS011;3307;52.416;16.862;2023-04-24T10:19:07;12.00;;;11.10;;
6547;SDS011;3307;52.416;16.862;2023-04-24T10:21:33;12.40;;;11.40;;
6547;SDS011;3307;52.416;16.862;2023-04-24T10:23:59;13.20;;;12.00;;
6547;SDS011;3307;52.416;16.862;2023-04-24T10:26:28;12.20;;;11.20;;
6547;SDS011;3307;52.416;16.862;2023-04-24T10:28:54;11.87;;;10.97;;
6547;SDS011;3307;52.416;16.862;2023-04-24T10:31:22;13.90;;;12.80;;
6547;SDS011;3307;52.416;16.862;2023-04-24T10:33:48;13.50;;;12.50;;
6547;SDS011;3307;52.416;16.862;2023-04-24T10:36:15;12.37;;;11.30;;
6547;SDS011;3307;52.416;16.862;2023-04-24T10:38:41;13.03;;;12.00;;
6547;SDS011;3307;52.416;16.862;2023-04-24T10:41:11;10.57;;;9.80;;
6547;SDS011;3307;52.416;16.862;2023-04-24T10:43:48;12.07;;;11.17;;
6547;SDS011;3307;52.416;16.862;2023-04-24T10:46:31;11.40;;;10.60;;
6547;SDS011;3307;52.416;16.862;2023-04-24T10:48:57;10.27;;;9.43;;
6547;SDS011;3307;52.416;16.862;2023-04-24T10:51:23;11.07;;;10.07;;
6547;SDS011;3307;52.416;16.862;2023-04-24T10:53:50;10.80;;;9.90;;
6547;SDS011;3307;52.416;16.862;2023-04-24T10:56:16;10.10;;;9.27;;
6547;SDS011;3307;52.416;16.862;2023-04-24T10:58:43;7.00;;;6.50;;
6547;SDS011;3307;52.416;16.862;2023-04-24T11:01:30;6.97;;;6.38;;
6547;SDS011;3307;52.416;16.862;2023-04-24T11:04:00;7.00;;;6.40;;
6547;SDS011;3307;52.416;16.862;2023-04-24T11:06:32;6.90;;;6.40;;
6547;SDS011;3307;52.416;16.862;2023-04-24T11:11:29;5.43;;;5.03;;
6547;SDS011;3307;52.416;16.862;2023-04-24T11:16:21;5.80;;;5.30;;
6547;SDS011;3307;52.416;16.862;2023-04-24T11:21:45;6.20;;;5.60;;
6547;SDS011;3307;52.416;16.862;2023-04-24T11:24:26;6.50;;;5.93;;
6547;SDS011;3307;52.416;16.862;2023-04-24T11:27:12;5.00;;;4.70;;
6547;SDS011;3307;52.416;16.862;2023-04-24T11:29:42;5.13;;;4.73;;
6547;SDS011;3307;52.416;16.862;2023-04-24T11:32:27;5.07;;;4.60;;
6547;SDS011;3307;52.416;16.862;2023-04-24T11:37:34;5.47;;;4.97;;
6547;SDS011;3307;52.416;16.862;2023-04-24T11:40:05;5.43;;;4.93;;
6547;SDS011;3307;52.416;16.862;2023-04-24T11:42:35;5.13;;;4.30;;
6547;SDS011;3307;52.416;16.862;2023-04-24T11:45:01;5.07;;;4.10;;
6547;SDS011;3307;52.416;16.862;2023-04-24T11:47:27;4.60;;;4.20;;
6547;SDS011;3307;52.416;16.862;2023-04-24T11:49:54;4.78;;;4.32;;
6547;SDS011;3307;52.416;16.862;2023-04-24T11:52:19;4.80;;;4.40;;
6547;SDS011;3307;52.416;16.862;2023-04-24T11:54:49;4.47;;;4.17;;
6547;SDS011;3307;52.416;16.862;2023-04-24T11:57:15;4.17;;;3.83;;
6547;SDS011;3307;52.416;16.862;2023-04-24T11:59:40;5.70;;;3.43;;
6547;SDS011;3307;52.416;16.862;2023-04-24T12:02:06;4.47;;;3.90;;
6547;SDS011;3307;52.416;16.862;2023-04-24T12:04:38;4.00;;;3.70;;
6547;SDS011;3307;52.416;16.862;2023-04-24T12:07:05;3.87;;;3.57;;
6547;SDS011;3307;52.416;16.862;2023-04-24T12:09:43;4.50;;;4.07;;
6547;SDS011;3307;52.416;16.862;2023-04-24T12:12:10;4.60;;;4.20;;
6547;SDS011;3307;52.416;16.862;2023-04-24T12:14:47;4.90;;;4.30;;
6547;SDS011;3307;52.416;16.862;2023-04-24T12:17:14;4.70;;;3.70;;
6547;SDS011;3307;52.416;16.862;2023-04-24T12:19:45;4.30;;;4.00;;
6547;SDS011;3307;52.416;16.862;2023-04-24T12:22:11;4.67;;;4.27;;
6547;SDS011;3307;52.416;16.862;2023-04-24T12:24:54;3.87;;;3.57;;
6547;SDS011;3307;52.416;16.862;2023-04-24T12:27:21;4.30;;;4.00;;
6547;SDS011;3307;52.416;16.862;2023-04-24T12:29:53;4.60;;;4.10;;
6547;SDS011;3307;52.416;16.862;2023-04-24T12:32:22;4.40;;;4.00;;
6547;SDS011;3307;52.416;16.862;2023-04-24T12:34:49;4.93;;;4.53;;
6547;SDS011;3307;52.416;16.862;2023-04-24T12:37:15;6.30;;;4.32;;
6547;SDS011;3307;52.416;16.862;2023-04-24T12:39:44;5.43;;;4.93;;
6547;SDS011;3307;52.416;16.862;2023-04-24T12:42:27;7.60;;;5.13;;
6547;SDS011;3307;52.416;16.862;2023-04-24T12:44:57;5.10;;;4.70;;
6547;SDS011;3307;52.416;16.862;2023-04-24T12:47:24;5.27;;;4.90;;
6547;SDS011;3307;52.416;16.862;2023-04-24T12:49:50;6.00;;;5.50;;
6547;SDS011;3307;52.416;16.862;2023-04-24T12:52:17;6.32;;;5.85;;
6547;SDS011;3307;52.416;16.862;2023-04-24T12:54:45;7.77;;;6.47;;
6547;SDS011;3307;52.416;16.862;2023-04-24T12:57:10;7.07;;;6.57;;
6547;SDS011;3307;52.416;16.862;2023-04-24T12:59:36;6.10;;;5.60;;
6547;SDS011;3307;52.416;16.862;2023-04-24T13:02:01;8.90;;;6.60;;
6547;SDS011;3307;52.416;16.862;2023-04-24T13:04:27;6.70;;;6.13;;
6547;SDS011;3307;52.416;16.862;2023-04-24T13:06:52;6.50;;;6.00;;
6547;SDS011;3307;52.416;16.862;2023-04-24T13:09:18;6.60;;;6.00;;
6547;SDS011;3307;52.416;16.862;2023-04-24T13:11:43;5.67;;;5.17;;
6547;SDS011;3307;52.416;16.862;2023-04-24T13:14:08;7.03;;;5.50;;
6547;SDS011;3307;52.416;16.862;2023-04-24T13:16:34;5.77;;;5.37;;
6547;SDS011;3307;52.416;16.862;2023-04-24T13:18:59;4.73;;;4.33;;
6547;SDS011;3307;52.416;16.862;2023-04-24T13:21:25;5.30;;;4.90;;
6547;SDS011;3307;52.416;16.862;2023-04-24T13:23:51;4.90;;;4.40;;
6547;SDS011;3307;52.416;16.862;2023-04-24T13:26:16;4.63;;;4.23;;
6547;SDS011;3307;52.416;16.862;2023-04-24T13:28:42;5.40;;;4.90;;
6547;SDS011;3307;52.416;16.862;2023-04-24T13:31:07;4.87;;;4.37;;
6547;SDS011;3307;52.416;16.862;2023-04-24T13:33:33;5.10;;;4.10;;
6547;SDS011;3307;52.416;16.862;2023-04-24T13:35:58;4.13;;;3.73;;
6547;SDS011;3307;52.416;16.862;2023-04-24T13:38:25;2.67;;;2.30;;
6547;SDS011;3307;52.416;16.862;2023-04-24T13:40:50;5.53;;;2.67;;
6547;SDS011;3307;52.416;16.862;2023-04-24T13:43:16;2.93;;;2.50;;
6547;SDS011;3307;52.416;16.862;2023-04-24T13:45:41;2.60;;;2.40;;
6547;SDS011;3307;52.416;16.862;2023-04-24T13:48:07;2.80;;;2.03;;
6547;SDS011;3307;52.416;16.862;2023-04-24T13:50:33;3.00;;;2.50;;
6547;SDS011;3307;52.416;16.862;2023-04-24T13:52:59;2.40;;;2.20;;
6547;SDS011;3307;52.416;16.862;2023-04-24T13:55:26;2.78;;;2.20;;
6547;SDS011;3307;52.416;16.862;2023-04-24T13:57:51;2.50;;;1.83;;
6547;SDS011;3307;52.416;16.862;2023-04-24T14:00:20;4.10;;;2.53;;
6547;SDS011;3307;52.416;16.862;2023-04-24T14:02:45;3.23;;;2.30;;
6547;SDS011;3307;52.416;16.862;2023-04-24T14:05:12;3.00;;;2.23;;
6547;SDS011;3307;52.416;16.862;2023-04-24T14:07:39;3.50;;;2.70;;
6547;SDS011;3307;52.416;16.862;2023-04-24T14:10:04;2.43;;;2.20;;
6547;SDS011;3307;52.416;16.862;2023-04-24T14:12:30;2.63;;;2.20;;
6547;SDS011;3307;52.416;16.862;2023-04-24T14:14:55;3.13;;;2.47;;
6547;SDS011;3307;52.416;16.862;2023-04-24T14:17:21;4.13;;;1.70;;
6547;SDS011;3307;52.416;16.862;2023-04-24T14:19:46;2.53;;;1.60;;
6547;SDS011;3307;52.416;16.862;2023-04-24T14:22:12;1.70;;;1.23;;
6547;SDS011;3307;52.416;16.862;2023-04-24T14:24:37;3.13;;;1.37;;
6547;SDS011;3307;52.416;16.862;2023-04-24T14:27:03;1.93;;;1.30;;
6547;SDS011;3307;52.416;16.862;2023-04-24T14:29:28;4.50;;;3.47;;
6547;SDS011;3307;52.416;16.862;2023-04-24T14:31:54;5.57;;;2.17;;
6547;SDS011;3307;52.416;16.862;2023-04-24T14:34:19;4.27;;;3.70;;
6547;SDS011;3307;52.416;16.862;2023-04-24T14:36:45;2.50;;;2.10;;
6547;SDS011;3307;52.416;16.862;2023-04-24T14:39:10;2.53;;;2.17;;
6547;SDS011;3307;52.416;16.862;2023-04-24T14:41:36;4.77;;;1.97;;
6547;SDS011;3307;52.416;16.862;2023-04-24T14:44:02;2.30;;;2.00;;
6547;SDS011;3307;52.416;16.862;2023-04-24T14:46:28;3.30;;;2.70;;
6547;SDS011;3307;52.416;16.862;2023-04-24T14:48:55;2.87;;;2.63;;